sensor_id;sensor_type;location;lat;lon;timestamp;temperature;humidity
20985;DHT22;10651;47.552;7.606;2023-10-13T05:51:33;15.30;99.90
20985;DHT22;10651;47.552;7.606;2023-10-13T05:54:10;15.30;99.90
20985;DHT22;10651;47.552;7.606;2023-10-13T05:56:46;15.40;99.90
20985;DHT22;10651;47.552;7.606;2023-10-13T05:59:32;15.40;99.90
20985;DHT22;10651;47.552;7.606;2023-10-13T06:02:18;15.40;99.90
20985;DHT22;10651;47.552;7.606;2023-10-13T06:05:03;15.40;99.90
20985;DHT22;10651;47.552;7.606;2023-10-13T06:07:48;15.40;99.90
20985;DHT22;10651;47.552;7.606;2023-10-13T06:10:33;15.50;99.90
20985;DHT22;10651;47.552;7.606;2023-10-13T06:13:17;15.50;99.90
20985;DHT22;10651;47.552;7.606;2023-10-13T06:16:13;15.60;99.90
20985;DHT22;10651;47.552;7.606;2023-10-13T06:18:57;15.70;99.90
20985;DHT22;10651;47.552;7.606;2023-10-13T06:21:56;15.80;99.90
20985;DHT22;10651;47.552;7.606;2023-10-13T06:24:40;15.90;99.90
20985;DHT22;10651;47.552;7.606;2023-10-13T06:27:24;15.80;99.90
20985;DHT22;10651;47.552;7.606;2023-10-13T06:30:14;15.80;99.90
20985;DHT22;10651;47.552;7.606;2023-10-13T06:32:43;15.70;99.90
20985;DHT22;10651;47.552;7.606;2023-10-13T06:35:11;15.70;99.90
20985;DHT22;10651;47.552;7.606;2023-10-13T06:37:50;15.70;99.90
20985;DHT22;10651;47.552;7.606;2023-10-13T06:40:16;15.70;99.90
20985;DHT22;10651;47.552;7.606;2023-10-13T06:42:52;15.70;99.90
20985;DHT22;10651;47.552;7.606;2023-10-13T06:45:19;15.70;99.90
20985;DHT22;10651;47.552;7.606;2023-10-13T06:47:46;15.70;99.90
20985;DHT22;10651;47.552;7.606;2023-10-13T06:50:15;15.70;99.90
20985;DHT22;10651;47.552;7.606;2023-10-13T06:52:54;15.70;99.90
20985;DHT22;10651;47.552;7.606;2023-10-13T06:55:22;15.90;99.90
20985;DHT22;10651;47.552;7.606;2023-10-13T06:58:04;16.00;99.90
20985;DHT22;10651;47.552;7.606;2023-10-13T07:00:37;16.20;99.90
20985;DHT22;10651;47.552;7.606;2023-10-13T07:03:07;16.20;99.90
20985;DHT22;10651;47.552;7.606;2023-10-13T07:05:40;16.20;99.90
20985;DHT22;10651;47.552;7.606;2023-10-13T07:08:10;16.20;99.90
20985;DHT22;10651;47.552;7.606;2023-10-13T07:10:55;16.10;99.90
20985;DHT22;10651;47.552;7.606;2023-10-13T07:13:28;16.20;99.90
20985;DHT22;10651;47.552;7.606;2023-10-13T07:15:55;16.30;99.90
20985;DHT22;10651;47.552;7.606;2023-10-13T07:18:30;16.30;99.90
20985;DHT22;10651;47.552;7.606;2023-10-13T07:21:03;16.30;99.90
20985;DHT22;10651;47.552;7.606;2023-10-13T07:23:40;16.30;99.90
20985;DHT22;10651;47.552;7.606;2023-10-13T07:26:27;16.60;99.90
20985;DHT22;10651;47.552;7.606;2023-10-13T07:29:00;16.70;99.90
20985;DHT22;10651;47.552;7.606;2023-10-13T07:31:34;16.90;99.90
20985;DHT22;10651;47.552;7.606;2023-10-13T07:34:04;17.10;99.90
20985;DHT22;10651;47.552;7.606;2023-10-13T07:36:39;17.20;99.90
20985;DHT22;10651;47.552;7.606;2023-10-13T07:39:08;17.50;99.90
20985;DHT22;10651;47.552;7.606;2023-10-13T07:41:51;17.70;99.90
20985;DHT22;10651;47.552;7.606;2023-10-13T07:44:22;17.80;99.90
20985;DHT22;10651;47.552;7.606;2023-10-13T07:46:54;18.10;99.90
20985;DHT22;10651;47.552;7.606;2023-10-13T07:49:36;18.20;99.90
20985;DHT22;10651;47.552;7.606;2023-10-13T07:52:05;18.40;99.90
20985;DHT22;10651;47.552;7.606;2023-10-13T07:55:00;18.60;99.90
20985;DHT22;10651;47.552;7.606;2023-10-13T07:57:47;18.90;99.90
20985;DHT22;10651;47.552;7.606;2023-10-13T08:00:20;18.90;99.90
20985;DHT22;10651;47.552;7.606;2023-10-13T08:03:04;19.10;99.90
20985;DHT22;10651;47.552;7.606;2023-10-13T08:05:51;19.30;99.90
20985;DHT22;10651;47.552;7.606;2023-10-13T08:08:44;19.60;99.90
20985;DHT22;10651;47.552;7.606;2023-10-13T08:11:16;19.90;99.90
20985;DHT22;10651;47.552;7.606;2023-10-13T08:13:58;20.00;99.90
20985;DHT22;10651;47.552;7.606;2023-10-13T08:16:28;19.90;99.90
20985;DHT22;10651;47.552;7.606;2023-10-13T08:19:14;20.20;99.90
20985;DHT22;10651;47.552;7.606;2023-10-13T08:21:44;20.40;99.90
20985;DHT22;10651;47.552;7.606;2023-10-13T08:24:25;20.60;99.90
20985;DHT22;10651;47.552;7.606;2023-10-13T08:27:06;20.70;99.90
20985;DHT22;10651;47.552;7.606;2023-10-13T08:29:45;20.90;99.90
20985;DHT22;10651;47.552;7.606;2023-10-13T08:32:24;20.90;99.90
20985;DHT22;10651;47.552;7.606;2023-10-13T08:34:57;21.10;99.90
20985;DHT22;10651;47.552;7.606;2023-10-13T08:37:23;21.30;99.90
20985;DHT22;10651;47.552;7.606;2023-10-13T08:39:53;21.30;99.90
20985;DHT22;10651;47.552;7.606;2023-10-13T08:45:15;21.90;99.90
20985;DHT22;10651;47.552;7.606;2023-10-13T08:47:58;22.00;99.90
20985;DHT22;10651;47.552;7.606;2023-10-13T08:50:38;22.20;99.90
20985;DHT22;10651;47.552;7.606;2023-10-13T08:53:18;22.20;99.90
20985;DHT22;10651;47.552;7.606;2023-10-13T08:55:57;22.60;99.90
20985;DHT22;10651;47.552;7.606;2023-10-13T08:58:30;22.80;99.90
20985;DHT22;10651;47.552;7.606;2023-10-13T09:01:14;22.80;99.90
20985;DHT22;10651;47.552;7.606;2023-10-13T09:04:07;23.10;99.90
20985;DHT22;10651;47.552;7.606;2023-10-13T09:09:49;23.50;99.90
20985;DHT22;10651;47.552;7.606;2023-10-13T09:15:01;23.70;99.90
20985;DHT22;10651;47.552;7.606;2023-10-13T09:17:50;23.70;99.90
20985;DHT22;10651;47.552;7.606;2023-10-13T09:20:16;24.00;99.90
20985;DHT22;10651;47.552;7.606;2023-10-13T09:25:47;24.60;99.90
20985;DHT22;10651;47.552;7.606;2023-10-13T09:28:34;24.60;99.90
20985;DHT22;10651;47.552;7.606;2023-10-13T09:31:03;25.10;99.90
20985;DHT22;10651;47.552;7.606;2023-10-13T09:33:33;26.00;99.90
20985;DHT22;10651;47.552;7.606;2023-10-13T09:36:02;29.50;99.90
20985;DHT22;10651;47.552;7.606;2023-10-13T09:38:35;32.30;99.90
20985;DHT22;10651;47.552;7.606;2023-10-13T09:41:13;34.00;93.70
20985;DHT22;10651;47.552;7.606;2023-10-13T09:43:51;35.40;86.50
20985;DHT22;10651;47.552;7.606;2023-10-13T09:46:21;36.20;81.10
20985;DHT22;10651;47.552;7.606;2023-10-13T09:48:57;37.50;75.30
20985;DHT22;10651;47.552;7.606;2023-10-13T09:51:40;38.30;70.80
20985;DHT22;10651;47.552;7.606;2023-10-13T09:54:29;38.50;67.80
20985;DHT22;10651;47.552;7.606;2023-10-13T09:57:07;38.10;65.70
20985;DHT22;10651;47.552;7.606;2023-10-13T09:59:44;37.90;64.80
20985;DHT22;10651;47.552;7.606;2023-10-13T10:04:53;39.30;60.40
20985;DHT22;10651;47.552;7.606;2023-10-13T10:07:27;40.60;59.80
20985;DHT22;10651;47.552;7.606;2023-10-13T10:09:59;40.80;57.90
20985;DHT22;10651;47.552;7.606;2023-10-13T10:12:36;41.00;57.50
20985;DHT22;10651;47.552;7.606;2023-10-13T10:15:33;40.50;56.20
20985;DHT22;10651;47.552;7.606;2023-10-13T10:18:29;40.80;55.50
20985;DHT22;10651;47.552;7.606;2023-10-13T10:21:04;40.90;54.40
20985;DHT22;10651;47.552;7.606;2023-10-13T10:23:34;41.00;54.60
20985;DHT22;10651;47.552;7.606;2023-10-13T10:26:14;42.00;54.10
20985;DHT22;10651;47.552;7.606;2023-10-13T10:28:42;43.30;54.90
20985;DHT22;10651;47.552;7.606;2023-10-13T10:31:10;43.80;51.60
20985;DHT22;10651;47.552;7.606;2023-10-13T10:33:41;44.10;51.50
20985;DHT22;10651;47.552;7.606;2023-10-13T10:36:07;45.20;50.80
20985;DHT22;10651;47.552;7.606;2023-10-13T10:38:52;46.30;50.10
20985;DHT22;10651;47.552;7.606;2023-10-13T10:41:30;46.40;48.60
20985;DHT22;10651;47.552;7.606;2023-10-13T10:44:26;46.80;46.40
20985;DHT22;10651;47.552;7.606;2023-10-13T10:47:15;46.60;46.80
20985;DHT22;10651;47.552;7.606;2023-10-13T10:50:00;47.00;46.10
20985;DHT22;10651;47.552;7.606;2023-10-13T10:52:34;46.70;45.40
20985;DHT22;10651;47.552;7.606;2023-10-13T10:55:08;47.50;45.50
20985;DHT22;10651;47.552;7.606;2023-10-13T10:57:36;46.50;44.60
20985;DHT22;10651;47.552;7.606;2023-10-13T11:00:18;46.50;44.40
20985;DHT22;10651;47.552;7.606;2023-10-13T11:03:01;46.20;44.00
20985;DHT22;10651;47.552;7.606;2023-10-13T11:05:30;46.50;44.50
20985;DHT22;10651;47.552;7.606;2023-10-13T11:08:01;48.00;45.50
20985;DHT22;10651;47.552;7.606;2023-10-13T11:10:28;49.10;43.60
20985;DHT22;10651;47.552;7.606;2023-10-13T11:13:01;49.90;42.20
20985;DHT22;10651;47.552;7.606;2023-10-13T11:15:47;50.00;41.50
20985;DHT22;10651;47.552;7.606;2023-10-13T11:18:14;51.10;42.30
20985;DHT22;10651;47.552;7.606;2023-10-13T11:20:49;52.20;41.20
20985;DHT22;10651;47.552;7.606;2023-10-13T11:23:21;52.40;40.00
20985;DHT22;10651;47.552;7.606;2023-10-13T11:25:59;52.10;40.10
20985;DHT22;10651;47.552;7.606;2023-10-13T11:28:25;52.10;39.50
20985;DHT22;10651;47.552;7.606;2023-10-13T11:30:57;53.30;40.40
20985;DHT22;10651;47.552;7.606;2023-10-13T11:33:45;54.10;38.80
20985;DHT22;10651;47.552;7.606;2023-10-13T11:36:19;54.00;38.70
20985;DHT22;10651;47.552;7.606;2023-10-13T11:39:18;54.80;38.20
20985;DHT22;10651;47.552;7.606;2023-10-13T11:41:53;55.30;37.10
20985;DHT22;10651;47.552;7.606;2023-10-13T11:44:24;54.70;37.60
20985;DHT22;10651;47.552;7.606;2023-10-13T11:46:54;55.60;36.90
20985;DHT22;10651;47.552;7.606;2023-10-13T11:49:43;56.10;36.50
20985;DHT22;10651;47.552;7.606;2023-10-13T11:52:09;55.90;36.70
20985;DHT22;10651;47.552;7.606;2023-10-13T11:54:50;56.10;36.30
20985;DHT22;10651;47.552;7.606;2023-10-13T11:57:16;55.10;34.90
20985;DHT22;10651;47.552;7.606;2023-10-13T11:59:46;55.50;35.30
20985;DHT22;10651;47.552;7.606;2023-10-13T12:02:20;55.50;35.50
20985;DHT22;10651;47.552;7.606;2023-10-13T12:04:59;56.40;35.30
20985;DHT22;10651;47.552;7.606;2023-10-13T12:07:25;56.70;34.70
20985;DHT22;10651;47.552;7.606;2023-10-13T12:10:11;56.00;35.10
20985;DHT22;10651;47.552;7.606;2023-10-13T12:13:01;56.10;34.80
20985;DHT22;10651;47.552;7.606;2023-10-13T12:15:32;56.70;33.60
20985;DHT22;10651;47.552;7.606;2023-10-13T12:18:15;57.30;33.30
20985;DHT22;10651;47.552;7.606;2023-10-13T12:20:44;57.20;33.00
20985;DHT22;10651;47.552;7.606;2023-10-13T12:23:12;56.60;33.10
20985;DHT22;10651;47.552;7.606;2023-10-13T12:25:43;56.90;33.40
20985;DHT22;10651;47.552;7.606;2023-10-13T12:28:25;57.40;32.90
20985;DHT22;10651;47.552;7.606;2023-10-13T12:30:55;57.50;33.20
20985;DHT22;10651;47.552;7.606;2023-10-13T12:33:24;57.20;32.70
20985;DHT22;10651;47.552;7.606;2023-10-13T12:35:56;56.70;32.30
20985;DHT22;10651;47.552;7.606;2023-10-13T12:38:41;57.30;32.70
20985;DHT22;10651;47.552;7.606;2023-10-13T12:41:20;57.50;32.10
20985;DHT22;10651;47.552;7.606;2023-10-13T12:44:05;57.60;32.90
20985;DHT22;10651;47.552;7.606;2023-10-13T12:46:50;57.60;33.20
20985;DHT22;10651;47.552;7.606;2023-10-13T12:49:36;58.10;31.90
20985;DHT22;10651;47.552;7.606;2023-10-13T12:52:11;58.10;30.90
20985;DHT22;10651;47.552;7.606;2023-10-13T13:05:52;58.60;30.70
20985;DHT22;10651;47.552;7.606;2023-10-13T13:09:04;58.40;30.80
20985;DHT22;10651;47.552;7.606;2023-10-13T13:12:22;58.30;31.10
20985;DHT22;10651;47.552;7.606;2023-10-13T13:18:54;57.30;31.10
20985;DHT22;10651;47.552;7.606;2023-10-13T13:21:48;56.90;31.20
20985;DHT22;10651;47.552;7.606;2023-10-13T13:30:55;56.60;31.10
20985;DHT22;10651;47.552;7.606;2023-10-13T13:37:29;56.00;30.80
20985;DHT22;10651;47.552;7.606;2023-10-13T13:43:57;55.30;30.50
20985;DHT22;10651;47.552;7.606;2023-10-13T13:47:01;55.50;30.90
20985;DHT22;10651;47.552;7.606;2023-10-13T13:50:01;55.60;31.30
20985;DHT22;10651;47.552;7.606;2023-10-13T13:52:47;54.50;30.30
20985;DHT22;10651;47.552;7.606;2023-10-13T13:58:24;53.90;30.50
20985;DHT22;10651;47.552;7.606;2023-10-13T14:01:05;53.10;30.40
20985;DHT22;10651;47.552;7.606;2023-10-13T14:04:21;52.60;31.80
20985;DHT22;10651;47.552;7.606;2023-10-13T14:06:53;52.40;32.40
20985;DHT22;10651;47.552;7.606;2023-10-13T14:09:24;52.20;31.50
20985;DHT22;10651;47.552;7.606;2023-10-13T14:12:25;51.90;31.30
20985;DHT22;10651;47.552;7.606;2023-10-13T14:15:18;50.70;31.70
20985;DHT22;10651;47.552;7.606;2023-10-13T14:18:11;49.70;32.60
20985;DHT22;10651;47.552;7.606;2023-10-13T14:24:25;49.30;32.60
20985;DHT22;10651;47.552;7.606;2023-10-13T14:27:37;48.50;31.30
20985;DHT22;10651;47.552;7.606;2023-10-13T14:30:43;46.90;30.80
20985;DHT22;10651;47.552;7.606;2023-10-13T14:33:38;43.90;31.90
20985;DHT22;10651;47.552;7.606;2023-10-13T14:36:15;42.10;34.60
20985;DHT22;10651;47.552;7.606;2023-10-13T14:38:53;40.60;34.20
20985;DHT22;10651;47.552;7.606;2023-10-13T14:42:03;38.80;35.40
20985;DHT22;10651;47.552;7.606;2023-10-13T14:44:54;37.70;36.00
20985;DHT22;10651;47.552;7.606;2023-10-13T14:47:29;36.80;35.90
20985;DHT22;10651;47.552;7.606;2023-10-13T14:50:01;36.10;36.20
20985;DHT22;10651;47.552;7.606;2023-10-13T14:52:29;35.60;36.00
20985;DHT22;10651;47.552;7.606;2023-10-13T14:54:59;35.30;36.30
20985;DHT22;10651;47.552;7.606;2023-10-13T14:57:25;34.80;36.00
20985;DHT22;10651;47.552;7.606;2023-10-13T14:59:56;34.50;36.50
20985;DHT22;10651;47.552;7.606;2023-10-13T15:02:24;34.30;37.70
20985;DHT22;10651;47.552;7.606;2023-10-13T15:04:53;34.30;36.40
20985;DHT22;10651;47.552;7.606;2023-10-13T15:07:19;34.10;37.30
20985;DHT22;10651;47.552;7.606;2023-10-13T15:12:53;33.50;35.90
20985;DHT22;10651;47.552;7.606;2023-10-13T15:15:26;33.10;35.50
20985;DHT22;10651;47.552;7.606;2023-10-13T15:17:52;32.70;35.50
20985;DHT22;10651;47.552;7.606;2023-10-13T15:20:26;32.40;35.70
20985;DHT22;10651;47.552;7.606;2023-10-13T15:22:54;32.30;36.00
20985;DHT22;10651;47.552;7.606;2023-10-13T15:25:26;32.10;36.10
20985;DHT22;10651;47.552;7.606;2023-10-13T15:28:17;31.90;36.50
20985;DHT22;10651;47.552;7.606;2023-10-13T15:30:46;31.70;37.00
20985;DHT22;10651;47.552;7.606;2023-10-13T15:33:22;31.70;37.60
20985;DHT22;10651;47.552;7.606;2023-10-13T15:35:50;31.50;37.60
20985;DHT22;10651;47.552;7.606;2023-10-13T15:38:17;31.30;38.00
20985;DHT22;10651;47.552;7.606;2023-10-13T15:40:53;31.20;38.50
20985;DHT22;10651;47.552;7.606;2023-10-13T15:43:20;31.10;39.20
20985;DHT22;10651;47.552;7.606;2023-10-13T15:45:56;30.90;39.30
20985;DHT22;10651;47.552;7.606;2023-10-13T15:48:27;30.80;39.60
20985;DHT22;10651;47.552;7.606;2023-10-13T15:51:00;30.70;39.90
20985;DHT22;10651;47.552;7.606;2023-10-13T15:53:46;30.40;40.30
20985;DHT22;10651;47.552;7.606;2023-10-13T15:59:40;30.20;40.90
20985;DHT22;10651;47.552;7.606;2023-10-13T16:02:11;29.90;41.40
20985;DHT22;10651;47.552;7.606;2023-10-13T16:04:42;29.70;41.80
20985;DHT22;10651;47.552;7.606;2023-10-13T16:07:13;29.50;41.80
20985;DHT22;10651;47.552;7.606;2023-10-13T16:10:12;29.30;42.20
20985;DHT22;10651;47.552;7.606;2023-10-13T16:12:42;29.20;42.70
20985;DHT22;10651;47.552;7.606;2023-10-13T16:15:20;29.00;43.10
20985;DHT22;10651;47.552;7.606;2023-10-13T16:18:14;28.90;43.60
20985;DHT22;10651;47.552;7.606;2023-10-13T16:20:43;28.70;44.00
20985;DHT22;10651;47.552;7.606;2023-10-13T16:23:11;28.50;44.70
20985;DHT22;10651;47.552;7.606;2023-10-13T16:25:44;28.40;44.70
20985;DHT22;10651;47.552;7.606;2023-10-13T16:28:10;28.30;45.20
20985;DHT22;10651;47.552;7.606;2023-10-13T16:30:56;28.10;45.50
20985;DHT22;10651;47.552;7.606;2023-10-13T16:33:32;28.00;45.80
20985;DHT22;10651;47.552;7.606;2023-10-13T16:36:08;27.90;45.80
20985;DHT22;10651;47.552;7.606;2023-10-13T16:38:38;27.80;46.10
20985;DHT22;10651;47.552;7.606;2023-10-13T16:41:04;27.70;46.30
20985;DHT22;10651;47.552;7.606;2023-10-13T16:43:41;27.50;47.50
20985;DHT22;10651;47.552;7.606;2023-10-13T16:46:14;27.40;47.10
20985;DHT22;10651;47.552;7.606;2023-10-13T16:48:43;27.30;47.20
20985;DHT22;10651;47.552;7.606;2023-10-13T16:51:17;27.20;47.40
20985;DHT22;10651;47.552;7.606;2023-10-13T16:53:44;27.10;47.50
20985;DHT22;10651;47.552;7.606;2023-10-13T16:56:18;27.10;47.80
20985;DHT22;10651;47.552;7.606;2023-10-13T16:58:55;27.00;48.00
20985;DHT22;10651;47.552;7.606;2023-10-13T17:01:49;26.90;48.70
20985;DHT22;10651;47.552;7.606;2023-10-13T17:04:14;26.80;48.80
20985;DHT22;10651;47.552;7.606;2023-10-13T17:06:45;26.80;48.70
20985;DHT22;10651;47.552;7.606;2023-10-13T17:09:11;26.70;50.00
20985;DHT22;10651;47.552;7.606;2023-10-13T17:11:48;26.50;50.50
20985;DHT22;10651;47.552;7.606;2023-10-13T17:14:22;26.40;50.50
20985;DHT22;10651;47.552;7.606;2023-10-13T17:16:48;26.30;51.20
20985;DHT22;10651;47.552;7.606;2023-10-13T17:19:14;26.10;51.40
20985;DHT22;10651;47.552;7.606;2023-10-13T17:21:40;26.00;51.90
20985;DHT22;10651;47.552;7.606;2023-10-13T17:24:06;25.80;52.40
20985;DHT22;10651;47.552;7.606;2023-10-13T17:26:32;25.70;52.30
20985;DHT22;10651;47.552;7.606;2023-10-13T17:28:58;25.60;52.60
20985;DHT22;10651;47.552;7.606;2023-10-13T17:31:28;25.40;52.00
20985;DHT22;10651;47.552;7.606;2023-10-13T17:33:54;25.40;53.10
20985;DHT22;10651;47.552;7.606;2023-10-13T17:36:23;25.30;55.30
20985;DHT22;10651;47.552;7.606;2023-10-13T17:38:52;25.20;58.10
20985;DHT22;10651;47.552;7.606;2023-10-13T17:41:18;25.20;54.90
20985;DHT22;10651;47.552;7.606;2023-10-13T17:43:43;25.10;59.50
20985;DHT22;10651;47.552;7.606;2023-10-13T17:46:12;25.20;54.40
20985;DHT22;10651;47.552;7.606;2023-10-13T17:48:38;25.10;53.30
20985;DHT22;10651;47.552;7.606;2023-10-13T17:51:05;25.00;53.80
20985;DHT22;10651;47.552;7.606;2023-10-13T17:53:32;24.90;54.00
20985;DHT22;10651;47.552;7.606;2023-10-13T17:56:08;24.90;54.00
20985;DHT22;10651;47.552;7.606;2023-10-13T17:58:48;24.90;53.40
20985;DHT22;10651;47.552;7.606;2023-10-13T18:01:37;24.80;54.20
20985;DHT22;10651;47.552;7.606;2023-10-13T18:04:02;24.80;54.40
20985;DHT22;10651;47.552;7.606;2023-10-13T18:06:30;24.70;54.40
20985;DHT22;10651;47.552;7.606;2023-10-13T18:08:57;24.60;54.90
20985;DHT22;10651;47.552;7.606;2023-10-13T18:11:23;24.50;54.80
20985;DHT22;10651;47.552;7.606;2023-10-13T18:13:53;24.30;55.40
20985;DHT22;10651;47.552;7.606;2023-10-13T18:16:21;24.10;56.50
20985;DHT22;10651;47.552;7.606;2023-10-13T18:18:48;24.00;57.90
20985;DHT22;10651;47.552;7.606;2023-10-13T18:21:19;24.00;56.40
20985;DHT22;10651;47.552;7.606;2023-10-13T18:23:49;23.90;57.30
20985;DHT22;10651;47.552;7.606;2023-10-13T18:26:15;23.90;57.20
20985;DHT22;10651;47.552;7.606;2023-10-13T18:28:42;23.80;56.90
20985;DHT22;10651;47.552;7.606;2023-10-13T18:31:08;23.70;58.10
20985;DHT22;10651;47.552;7.606;2023-10-13T18:33:37;23.70;56.50
20985;DHT22;10651;47.552;7.606;2023-10-13T18:36:19;23.60;58.20
20985;DHT22;10651;47.552;7.606;2023-10-13T18:38:50;23.60;58.10
20985;DHT22;10651;47.552;7.606;2023-10-13T18:41:17;23.50;58.00
20985;DHT22;10651;47.552;7.606;2023-10-13T18:43:48;23.40;58.20
20985;DHT22;10651;47.552;7.606;2023-10-13T18:46:16;23.40;59.30
20985;DHT22;10651;47.552;7.606;2023-10-13T18:48:44;23.40;59.00
20985;DHT22;10651;47.552;7.606;2023-10-13T18:51:12;23.30;59.80
20985;DHT22;10651;47.552;7.606;2023-10-13T18:54:13;23.30;59.50
20985;DHT22;10651;47.552;7.606;2023-10-13T18:56:39;23.10;60.00
20985;DHT22;10651;47.552;7.606;2023-10-13T18:59:09;23.10;58.90
20985;DHT22;10651;47.552;7.606;2023-10-13T19:01:35;23.20;58.10
20985;DHT22;10651;47.552;7.606;2023-10-13T19:04:05;23.20;58.90
20985;DHT22;10651;47.552;7.606;2023-10-13T19:06:37;23.20;58.00
20985;DHT22;10651;47.552;7.606;2023-10-13T19:09:04;23.30;58.00
20985;DHT22;10651;47.552;7.606;2023-10-13T19:11:31;23.30;59.10
20985;DHT22;10651;47.552;7.606;2023-10-13T19:14:05;23.20;57.40
20985;DHT22;10651;47.552;7.606;2023-10-13T19:16:36;23.20;60.00
20985;DHT22;10651;47.552;7.606;2023-10-13T19:19:02;23.00;60.20
20985;DHT22;10651;47.552;7.606;2023-10-13T19:21:30;23.10;57.60
20985;DHT22;10651;47.552;7.606;2023-10-13T19:24:02;23.00;59.40
20985;DHT22;10651;47.552;7.606;2023-10-13T19:26:29;23.00;59.90
20985;DHT22;10651;47.552;7.606;2023-10-13T19:28:57;22.90;60.20
20985;DHT22;10651;47.552;7.606;2023-10-13T19:31:24;22.90;58.40
20985;DHT22;10651;47.552;7.606;2023-10-13T19:33:51;23.00;58.90
20985;DHT22;10651;47.552;7.606;2023-10-13T19:36:17;23.00;59.70
20985;DHT22;10651;47.552;7.606;2023-10-13T19:38:47;22.90;58.80
20985;DHT22;10651;47.552;7.606;2023-10-13T19:41:23;22.90;60.40
20985;DHT22;10651;47.552;7.606;2023-10-13T19:43:56;22.90;60.70
20985;DHT22;10651;47.552;7.606;2023-10-13T19:46:23;22.80;62.60
20985;DHT22;10651;47.552;7.606;2023-10-13T19:48:49;22.80;63.70
20985;DHT22;10651;47.552;7.606;2023-10-13T19:51:16;22.80;59.70
20985;DHT22;10651;47.552;7.606;2023-10-13T19:53:43;22.80;59.40
20985;DHT22;10651;47.552;7.606;2023-10-13T19:56:16;22.90;60.30
20985;DHT22;10651;47.552;7.606;2023-10-13T19:58:46;23.10;59.00
20985;DHT22;10651;47.552;7.606;2023-10-13T20:01:15;23.20;58.60
20985;DHT22;10651;47.552;7.606;2023-10-13T20:03:42;23.40;58.20
20985;DHT22;10651;47.552;7.606;2023-10-13T20:06:08;23.60;58.00
20985;DHT22;10651;47.552;7.606;2023-10-13T20:08:35;23.60;57.90
20985;DHT22;10651;47.552;7.606;2023-10-13T20:11:07;23.70;58.30
20985;DHT22;10651;47.552;7.606;2023-10-13T20:13:38;23.70;58.40
20985;DHT22;10651;47.552;7.606;2023-10-13T20:16:05;23.80;58.30
20985;DHT22;10651;47.552;7.606;2023-10-13T20:18:36;23.80;58.40
20985;DHT22;10651;47.552;7.606;2023-10-13T20:21:03;23.90;58.80
20985;DHT22;10651;47.552;7.606;2023-10-13T20:23:32;23.90;59.00
20985;DHT22;10651;47.552;7.606;2023-10-13T20:25:58;24.00;59.10
20985;DHT22;10651;47.552;7.606;2023-10-13T20:28:24;24.10;59.30
20985;DHT22;10651;47.552;7.606;2023-10-13T20:30:52;24.10;59.40
20985;DHT22;10651;47.552;7.606;2023-10-13T20:33:18;24.10;59.60
20985;DHT22;10651;47.552;7.606;2023-10-13T20:35:48;24.10;59.70
20985;DHT22;10651;47.552;7.606;2023-10-13T20:38:14;24.20;60.00
20985;DHT22;10651;47.552;7.606;2023-10-13T20:40:44;24.20;60.00
20985;DHT22;10651;47.552;7.606;2023-10-13T20:43:13;24.20;60.30
20985;DHT22;10651;47.552;7.606;2023-10-13T20:45:39;24.20;60.50
20985;DHT22;10651;47.552;7.606;2023-10-13T20:48:06;24.20;60.80
20985;DHT22;10651;47.552;7.606;2023-10-13T20:50:32;24.10;61.20
20985;DHT22;10651;47.552;7.606;2023-10-13T20:52:57;24.10;61.40
20985;DHT22;10651;47.552;7.606;2023-10-13T20:55:27;24.10;61.50
20985;DHT22;10651;47.552;7.606;2023-10-13T20:57:54;24.00;61.60
20985;DHT22;10651;47.552;7.606;2023-10-13T21:00:21;24.00;61.90
20985;DHT22;10651;47.552;7.606;2023-10-13T21:05:16;23.60;64.80
